sensor_id;sensor_type;location;lat;lon;timestamp;temperature;humidity
10433;DHT22;5263;48.680;9.004;2024-03-25T00:02:13;3.70;99.90
10433;DHT22;5263;48.680;9.004;2024-03-25T00:04:38;3.70;99.90
10433;DHT22;5263;48.680;9.004;2024-03-25T00:07:04;3.70;99.90
10433;DHT22;5263;48.680;9.004;2024-03-25T00:09:30;3.70;99.90
10433;DHT22;5263;48.680;9.004;2024-03-25T00:11:55;3.60;99.90
10433;DHT22;5263;48.680;9.004;2024-03-25T00:14:21;3.50;99.90
10433;DHT22;5263;48.680;9.004;2024-03-25T00:16:47;3.60;99.90
10433;DHT22;5263;48.680;9.004;2024-03-25T00:19:13;3.50;99.90
10433;DHT22;5263;48.680;9.004;2024-03-25T00:21:38;3.50;99.90
10433;DHT22;5263;48.680;9.004;2024-03-25T00:24:04;3.50;99.90
10433;DHT22;5263;48.680;9.004;2024-03-25T00:26:30;3.50;99.90
10433;DHT22;5263;48.680;9.004;2024-03-25T00:28:55;3.50;99.90
10433;DHT22;5263;48.680;9.004;2024-03-25T00:31:21;3.40;99.90
10433;DHT22;5263;48.680;9.004;2024-03-25T00:33:46;3.30;99.90
10433;DHT22;5263;48.680;9.004;2024-03-25T00:36:12;3.30;99.90
10433;DHT22;5263;48.680;9.004;2024-03-25T00:38:38;3.30;99.90
10433;DHT22;5263;48.680;9.004;2024-03-25T00:41:03;3.30;99.90
10433;DHT22;5263;48.680;9.004;2024-03-25T00:43:29;3.40;99.90
10433;DHT22;5263;48.680;9.004;2024-03-25T00:45:54;3.30;99.90
10433;DHT22;5263;48.680;9.004;2024-03-25T00:48:22;3.30;99.90
10433;DHT22;5263;48.680;9.004;2024-03-25T00:50:48;3.30;99.90
10433;DHT22;5263;48.680;9.004;2024-03-25T00:53:13;3.30;99.90
10433;DHT22;5263;48.680;9.004;2024-03-25T00:55:39;3.30;99.90
10433;DHT22;5263;48.680;9.004;2024-03-25T00:58:05;3.30;99.90
10433;DHT22;5263;48.680;9.004;2024-03-25T01:00:30;3.30;99.90
10433;DHT22;5263;48.680;9.004;2024-03-25T01:02:56;3.30;99.90
10433;DHT22;5263;48.680;9.004;2024-03-25T01:05:22;3.20;99.90
10433;DHT22;5263;48.680;9.004;2024-03-25T01:07:47;3.20;99.90
10433;DHT22;5263;48.680;9.004;2024-03-25T01:10:14;3.20;99.90
10433;DHT22;5263;48.680;9.004;2024-03-25T01:12:40;3.30;99.90
10433;DHT22;5263;48.680;9.004;2024-03-25T01:15:06;3.20;99.90
10433;DHT22;5263;48.680;9.004;2024-03-25T01:17:32;3.30;99.90
10433;DHT22;5263;48.680;9.004;2024-03-25T01:19:58;3.20;99.90
10433;DHT22;5263;48.680;9.004;2024-03-25T01:22:24;3.40;99.90
10433;DHT22;5263;48.680;9.004;2024-03-25T01:24:49;3.30;99.90
10433;DHT22;5263;48.680;9.004;2024-03-25T01:27:15;3.30;99.90
10433;DHT22;5263;48.680;9.004;2024-03-25T01:29:40;3.40;99.90
10433;DHT22;5263;48.680;9.004;2024-03-25T01:32:06;3.30;99.90
10433;DHT22;5263;48.680;9.004;2024-03-25T01:34:32;3.30;99.90
10433;DHT22;5263;48.680;9.004;2024-03-25T01:36:57;3.30;99.90
10433;DHT22;5263;48.680;9.004;2024-03-25T01:39:23;3.30;99.90
10433;DHT22;5263;48.680;9.004;2024-03-25T01:41:53;3.40;99.90
10433;DHT22;5263;48.680;9.004;2024-03-25T01:44:18;3.50;99.90
10433;DHT22;5263;48.680;9.004;2024-03-25T01:46:44;3.50;99.90
10433;DHT22;5263;48.680;9.004;2024-03-25T01:49:10;3.60;99.90
10433;DHT22;5263;48.680;9.004;2024-03-25T01:51:38;3.70;99.90
10433;DHT22;5263;48.680;9.004;2024-03-25T01:54:04;3.60;99.90
10433;DHT22;5263;48.680;9.004;2024-03-25T01:56:32;3.60;99.90
10433;DHT22;5263;48.680;9.004;2024-03-25T01:58:59;3.50;99.90
10433;DHT22;5263;48.680;9.004;2024-03-25T02:01:26;3.60;99.90
10433;DHT22;5263;48.680;9.004;2024-03-25T02:03:53;3.70;99.90
10433;DHT22;5263;48.680;9.004;2024-03-25T02:06:20;3.60;99.90
10433;DHT22;5263;48.680;9.004;2024-03-25T02:08:47;3.50;99.90
10433;DHT22;5263;48.680;9.004;2024-03-25T02:11:13;3.60;99.90
10433;DHT22;5263;48.680;9.004;2024-03-25T02:13:39;3.60;99.90
10433;DHT22;5263;48.680;9.004;2024-03-25T02:16:05;3.60;99.90
10433;DHT22;5263;48.680;9.004;2024-03-25T02:18:31;3.50;99.90
10433;DHT22;5263;48.680;9.004;2024-03-25T02:20:58;3.50;99.90
10433;DHT22;5263;48.680;9.004;2024-03-25T02:23:24;3.60;99.90
10433;DHT22;5263;48.680;9.004;2024-03-25T02:25:50;3.70;99.90
10433;DHT22;5263;48.680;9.004;2024-03-25T02:28:16;3.80;99.90
10433;DHT22;5263;48.680;9.004;2024-03-25T02:30:42;3.70;99.90
10433;DHT22;5263;48.680;9.004;2024-03-25T02:33:08;3.60;99.90
10433;DHT22;5263;48.680;9.004;2024-03-25T02:35:34;3.60;99.90
10433;DHT22;5263;48.680;9.004;2024-03-25T02:38:00;3.60;99.90
10433;DHT22;5263;48.680;9.004;2024-03-25T02:40:27;3.50;99.90
10433;DHT22;5263;48.680;9.004;2024-03-25T02:42:53;3.50;99.90
10433;DHT22;5263;48.680;9.004;2024-03-25T02:45:18;3.60;99.90
10433;DHT22;5263;48.680;9.004;2024-03-25T02:47:45;3.50;99.90
10433;DHT22;5263;48.680;9.004;2024-03-25T02:50:10;3.60;99.90
10433;DHT22;5263;48.680;9.004;2024-03-25T02:52:36;3.70;99.90
10433;DHT22;5263;48.680;9.004;2024-03-25T02:55:01;3.80;99.90
10433;DHT22;5263;48.680;9.004;2024-03-25T02:57:27;3.80;99.90
10433;DHT22;5263;48.680;9.004;2024-03-25T02:59:52;3.70;99.90
10433;DHT22;5263;48.680;9.004;2024-03-25T03:02:18;3.60;99.90
10433;DHT22;5263;48.680;9.004;2024-03-25T03:04:43;3.70;99.90
10433;DHT22;5263;48.680;9.004;2024-03-25T03:07:09;3.60;99.90
10433;DHT22;5263;48.680;9.004;2024-03-25T03:09:35;3.60;99.90
10433;DHT22;5263;48.680;9.004;2024-03-25T03:12:00;3.70;99.90
10433;DHT22;5263;48.680;9.004;2024-03-25T03:14:26;3.70;99.90
10433;DHT22;5263;48.680;9.004;2024-03-25T03:16:51;3.50;99.90
10433;DHT22;5263;48.680;9.004;2024-03-25T03:19:26;3.70;99.90
10433;DHT22;5263;48.680;9.004;2024-03-25T03:21:51;3.60;99.90
10433;DHT22;5263;48.680;9.004;2024-03-25T03:24:17;3.60;99.90
10433;DHT22;5263;48.680;9.004;2024-03-25T03:26:43;3.60;99.90
10433;DHT22;5263;48.680;9.004;2024-03-25T03:29:09;3.60;99.90
10433;DHT22;5263;48.680;9.004;2024-03-25T03:31:35;3.60;99.90
10433;DHT22;5263;48.680;9.004;2024-03-25T03:34:01;3.60;99.90
10433;DHT22;5263;48.680;9.004;2024-03-25T03:36:26;3.60;99.90
10433;DHT22;5263;48.680;9.004;2024-03-25T03:38:52;3.60;99.90
10433;DHT22;5263;48.680;9.004;2024-03-25T03:41:18;3.50;99.90
10433;DHT22;5263;48.680;9.004;2024-03-25T03:43:43;3.60;99.90
10433;DHT22;5263;48.680;9.004;2024-03-25T03:46:09;3.60;99.90
10433;DHT22;5263;48.680;9.004;2024-03-25T03:48:34;3.50;99.90
10433;DHT22;5263;48.680;9.004;2024-03-25T03:51:01;3.60;99.90
10433;DHT22;5263;48.680;9.004;2024-03-25T03:53:26;3.50;99.90
10433;DHT22;5263;48.680;9.004;2024-03-25T03:55:56;3.40;99.90
10433;DHT22;5263;48.680;9.004;2024-03-25T03:58:22;3.40;99.90
10433;DHT22;5263;48.680;9.004;2024-03-25T04:00:48;3.40;99.90
10433;DHT22;5263;48.680;9.004;2024-03-25T04:03:14;3.30;99.90
10433;DHT22;5263;48.680;9.004;2024-03-25T04:05:39;3.30;99.90
10433;DHT22;5263;48.680;9.004;2024-03-25T04:08:05;3.40;99.90
10433;DHT22;5263;48.680;9.004;2024-03-25T04:10:31;3.40;99.90
10433;DHT22;5263;48.680;9.004;2024-03-25T04:12:56;3.40;99.90
10433;DHT22;5263;48.680;9.004;2024-03-25T04:15:22;3.30;99.90
10433;DHT22;5263;48.680;9.004;2024-03-25T04:17:48;3.20;99.90
10433;DHT22;5263;48.680;9.004;2024-03-25T04:20:16;3.20;99.90
10433;DHT22;5263;48.680;9.004;2024-03-25T04:22:45;3.20;99.90
10433;DHT22;5263;48.680;9.004;2024-03-25T04:25:12;3.10;99.90
10433;DHT22;5263;48.680;9.004;2024-03-25T04:27:41;3.10;99.90
10433;DHT22;5263;48.680;9.004;2024-03-25T04:30:07;3.30;99.90
10433;DHT22;5263;48.680;9.004;2024-03-25T04:32:34;3.40;99.90
10433;DHT22;5263;48.680;9.004;2024-03-25T04:34:59;3.40;99.90
10433;DHT22;5263;48.680;9.004;2024-03-25T04:37:25;3.50;99.90
10433;DHT22;5263;48.680;9.004;2024-03-25T04:39:51;3.50;99.90
10433;DHT22;5263;48.680;9.004;2024-03-25T04:42:16;3.40;99.90
10433;DHT22;5263;48.680;9.004;2024-03-25T04:44:42;3.50;99.90
10433;DHT22;5263;48.680;9.004;2024-03-25T04:47:07;3.40;99.90
10433;DHT22;5263;48.680;9.004;2024-03-25T04:49:33;3.50;99.90
10433;DHT22;5263;48.680;9.004;2024-03-25T04:51:58;3.40;99.90
10433;DHT22;5263;48.680;9.004;2024-03-25T04:54:24;3.40;99.90
10433;DHT22;5263;48.680;9.004;2024-03-25T04:56:49;3.40;99.90
10433;DHT22;5263;48.680;9.004;2024-03-25T04:59:15;3.30;99.90
10433;DHT22;5263;48.680;9.004;2024-03-25T05:01:40;3.30;99.90
10433;DHT22;5263;48.680;9.004;2024-03-25T05:04:06;3.40;99.90
10433;DHT22;5263;48.680;9.004;2024-03-25T05:06:34;3.40;99.90
10433;DHT22;5263;48.680;9.004;2024-03-25T05:09:00;3.30;99.90
10433;DHT22;5263;48.680;9.004;2024-03-25T05:11:26;3.20;99.90
10433;DHT22;5263;48.680;9.004;2024-03-25T05:13:51;3.30;99.90
10433;DHT22;5263;48.680;9.004;2024-03-25T05:16:17;3.30;99.90
10433;DHT22;5263;48.680;9.004;2024-03-25T05:18:42;3.20;99.90
10433;DHT22;5263;48.680;9.004;2024-03-25T05:21:08;3.10;99.90
10433;DHT22;5263;48.680;9.004;2024-03-25T05:23:34;3.00;99.90
10433;DHT22;5263;48.680;9.004;2024-03-25T05:25:59;2.90;99.90
10433;DHT22;5263;48.680;9.004;2024-03-25T05:28:25;3.00;99.90
10433;DHT22;5263;48.680;9.004;2024-03-25T05:30:51;2.80;99.90
10433;DHT22;5263;48.680;9.004;2024-03-25T05:33:16;2.90;99.90
10433;DHT22;5263;48.680;9.004;2024-03-25T05:35:42;2.80;99.90
10433;DHT22;5263;48.680;9.004;2024-03-25T05:38:07;2.90;99.90
10433;DHT22;5263;48.680;9.004;2024-03-25T05:40:33;2.90;99.90
10433;DHT22;5263;48.680;9.004;2024-03-25T05:42:59;3.00;99.90
10433;DHT22;5263;48.680;9.004;2024-03-25T05:45:24;3.00;99.90
10433;DHT22;5263;48.680;9.004;2024-03-25T05:47:50;3.00;99.90
10433;DHT22;5263;48.680;9.004;2024-03-25T05:50:16;3.00;99.90
10433;DHT22;5263;48.680;9.004;2024-03-25T05:52:42;3.10;99.90
10433;DHT22;5263;48.680;9.004;2024-03-25T05:55:08;3.00;99.90
10433;DHT22;5263;48.680;9.004;2024-03-25T05:57:35;3.10;99.90
10433;DHT22;5263;48.680;9.004;2024-03-25T06:00:01;3.10;99.90
10433;DHT22;5263;48.680;9.004;2024-03-25T06:02:27;3.30;99.90
10433;DHT22;5263;48.680;9.004;2024-03-25T06:04:53;3.30;99.90
10433;DHT22;5263;48.680;9.004;2024-03-25T06:07:18;3.20;99.90
10433;DHT22;5263;48.680;9.004;2024-03-25T06:09:44;3.10;99.90
10433;DHT22;5263;48.680;9.004;2024-03-25T06:12:09;3.10;99.90
10433;DHT22;5263;48.680;9.004;2024-03-25T06:14:35;3.20;99.90
10433;DHT22;5263;48.680;9.004;2024-03-25T06:17:01;3.30;99.90
10433;DHT22;5263;48.680;9.004;2024-03-25T06:19:26;3.30;99.90
10433;DHT22;5263;48.680;9.004;2024-03-25T06:21:52;3.30;99.90
10433;DHT22;5263;48.680;9.004;2024-03-25T06:24:17;3.40;99.90
10433;DHT22;5263;48.680;9.004;2024-03-25T06:26:43;3.50;99.90
10433;DHT22;5263;48.680;9.004;2024-03-25T06:29:08;3.50;99.90
10433;DHT22;5263;48.680;9.004;2024-03-25T06:31:34;3.50;99.90
10433;DHT22;5263;48.680;9.004;2024-03-25T06:34:18;3.60;99.90
10433;DHT22;5263;48.680;9.004;2024-03-25T06:36:44;3.70;99.90
10433;DHT22;5263;48.680;9.004;2024-03-25T06:39:10;3.70;99.90
10433;DHT22;5263;48.680;9.004;2024-03-25T06:41:35;3.60;99.90
10433;DHT22;5263;48.680;9.004;2024-03-25T06:44:01;3.70;99.90
10433;DHT22;5263;48.680;9.004;2024-03-25T06:46:27;3.70;99.90
10433;DHT22;5263;48.680;9.004;2024-03-25T06:48:53;3.60;99.90
10433;DHT22;5263;48.680;9.004;2024-03-25T06:51:18;3.60;99.90
10433;DHT22;5263;48.680;9.004;2024-03-25T06:53:44;3.70;99.90
10433;DHT22;5263;48.680;9.004;2024-03-25T06:56:10;3.70;99.90
10433;DHT22;5263;48.680;9.004;2024-03-25T06:58:36;3.60;99.90
10433;DHT22;5263;48.680;9.004;2024-03-25T07:01:06;3.80;99.90
10433;DHT22;5263;48.680;9.004;2024-03-25T07:03:32;3.80;99.90
10433;DHT22;5263;48.680;9.004;2024-03-25T07:05:58;3.90;99.90
10433;DHT22;5263;48.680;9.004;2024-03-25T07:08:28;4.00;99.90
10433;DHT22;5263;48.680;9.004;2024-03-25T07:10:55;4.10;99.90
10433;DHT22;5263;48.680;9.004;2024-03-25T07:13:21;4.20;99.90
10433;DHT22;5263;48.680;9.004;2024-03-25T07:15:47;4.20;99.90
10433;DHT22;5263;48.680;9.004;2024-03-25T07:18:12;4.30;99.90
10433;DHT22;5263;48.680;9.004;2024-03-25T07:20:42;4.10;99.90
10433;DHT22;5263;48.680;9.004;2024-03-25T07:23:08;4.10;99.90
10433;DHT22;5263;48.680;9.004;2024-03-25T07:25:33;4.20;99.90
10433;DHT22;5263;48.680;9.004;2024-03-25T07:27:59;4.20;99.90
10433;DHT22;5263;48.680;9.004;2024-03-25T07:30:25;4.20;99.90
10433;DHT22;5263;48.680;9.004;2024-03-25T07:32:57;4.40;99.90
10433;DHT22;5263;48.680;9.004;2024-03-25T07:35:23;4.60;99.90
10433;DHT22;5263;48.680;9.004;2024-03-25T07:37:49;4.90;99.90
10433;DHT22;5263;48.680;9.004;2024-03-25T07:40:18;4.80;99.90
10433;DHT22;5263;48.680;9.004;2024-03-25T07:42:44;4.90;99.90
10433;DHT22;5263;48.680;9.004;2024-03-25T07:45:10;5.00;99.90
10433;DHT22;5263;48.680;9.004;2024-03-25T07:47:36;5.00;99.90
10433;DHT22;5263;48.680;9.004;2024-03-25T07:50:01;5.20;99.90
10433;DHT22;5263;48.680;9.004;2024-03-25T07:52:27;5.40;99.90
10433;DHT22;5263;48.680;9.004;2024-03-25T07:54:53;5.60;99.90
10433;DHT22;5263;48.680;9.004;2024-03-25T07:57:19;5.80;99.90
10433;DHT22;5263;48.680;9.004;2024-03-25T07:59:45;5.90;99.90
10433;DHT22;5263;48.680;9.004;2024-03-25T08:02:11;5.90;99.90
10433;DHT22;5263;48.680;9.004;2024-03-25T08:04:36;6.00;99.90
10433;DHT22;5263;48.680;9.004;2024-03-25T08:07:02;6.00;99.90
10433;DHT22;5263;48.680;9.004;2024-03-25T08:09:28;6.10;99.90
10433;DHT22;5263;48.680;9.004;2024-03-25T08:11:54;6.10;99.90
10433;DHT22;5263;48.680;9.004;2024-03-25T08:14:20;6.20;99.90
10433;DHT22;5263;48.680;9.004;2024-03-25T08:16:45;6.30;99.90
10433;DHT22;5263;48.680;9.004;2024-03-25T08:19:11;6.60;99.90
10433;DHT22;5263;48.680;9.004;2024-03-25T08:21:37;6.80;99.90
10433;DHT22;5263;48.680;9.004;2024-03-25T08:24:03;6.90;99.90
10433;DHT22;5263;48.680;9.004;2024-03-25T08:26:29;7.00;99.90
10433;DHT22;5263;48.680;9.004;2024-03-25T08:28:54;6.80;99.90
10433;DHT22;5263;48.680;9.004;2024-03-25T08:31:20;7.00;99.90
10433;DHT22;5263;48.680;9.004;2024-03-25T08:33:45;7.20;99.90
10433;DHT22;5263;48.680;9.004;2024-03-25T08:36:11;7.30;99.90
10433;DHT22;5263;48.680;9.004;2024-03-25T08:38:37;7.40;99.90
10433;DHT22;5263;48.680;9.004;2024-03-25T08:41:02;7.70;99.90
10433;DHT22;5263;48.680;9.004;2024-03-25T08:43:28;7.80;99.90
10433;DHT22;5263;48.680;9.004;2024-03-25T08:45:53;8.00;99.90
10433;DHT22;5263;48.680;9.004;2024-03-25T08:48:19;8.40;99.90
10433;DHT22;5263;48.680;9.004;2024-03-25T08:50:45;8.50;99.90
10433;DHT22;5263;48.680;9.004;2024-03-25T08:53:10;8.70;99.90
10433;DHT22;5263;48.680;9.004;2024-03-25T08:55:36;8.70;99.90
10433;DHT22;5263;48.680;9.004;2024-03-25T08:58:01;8.80;99.90
10433;DHT22;5263;48.680;9.004;2024-03-25T09:00:27;8.60;99.90
10433;DHT22;5263;48.680;9.004;2024-03-25T09:02:53;8.30;99.90
10433;DHT22;5263;48.680;9.004;2024-03-25T09:05:19;8.30;99.90
10433;DHT22;5263;48.680;9.004;2024-03-25T09:07:45;8.00;99.90
10433;DHT22;5263;48.680;9.004;2024-03-25T09:10:11;8.10;99.90
10433;DHT22;5263;48.680;9.004;2024-03-25T09:12:55;8.20;99.90
10433;DHT22;5263;48.680;9.004;2024-03-25T09:15:21;8.00;99.90
10433;DHT22;5263;48.680;9.004;2024-03-25T09:17:47;8.20;99.90
10433;DHT22;5263;48.680;9.004;2024-03-25T09:20:12;8.20;99.90
10433;DHT22;5263;48.680;9.004;2024-03-25T09:22:46;8.50;99.90
10433;DHT22;5263;48.680;9.004;2024-03-25T09:25:17;8.70;99.90
10433;DHT22;5263;48.680;9.004;2024-03-25T09:27:46;8.60;99.90
10433;DHT22;5263;48.680;9.004;2024-03-25T09:30:12;8.70;99.90
10433;DHT22;5263;48.680;9.004;2024-03-25T09:32:39;8.70;99.90
10433;DHT22;5263;48.680;9.004;2024-03-25T09:35:05;9.00;99.90
10433;DHT22;5263;48.680;9.004;2024-03-25T09:37:30;8.80;99.90
10433;DHT22;5263;48.680;9.004;2024-03-25T09:39:57;8.00;99.90
10433;DHT22;5263;48.680;9.004;2024-03-25T09:42:28;8.50;99.90
10433;DHT22;5263;48.680;9.004;2024-03-25T09:44:58;8.10;99.90
10433;DHT22;5263;48.680;9.004;2024-03-25T09:47:24;8.50;99.90
10433;DHT22;5263;48.680;9.004;2024-03-25T09:49:51;8.70;99.90
10433;DHT22;5263;48.680;9.004;2024-03-25T09:52:19;8.70;99.90
10433;DHT22;5263;48.680;9.004;2024-03-25T09:54:45;8.60;99.90
10433;DHT22;5263;48.680;9.004;2024-03-25T09:57:11;9.10;99.90
10433;DHT22;5263;48.680;9.004;2024-03-25T09:59:37;9.40;99.90
10433;DHT22;5263;48.680;9.004;2024-03-25T10:02:03;9.70;99.90
10433;DHT22;5263;48.680;9.004;2024-03-25T10:04:29;9.90;99.90
10433;DHT22;5263;48.680;9.004;2024-03-25T10:06:55;10.20;99.90
10433;DHT22;5263;48.680;9.004;2024-03-25T10:09:21;10.00;99.90
10433;DHT22;5263;48.680;9.004;2024-03-25T10:11:50;9.50;99.90
10433;DHT22;5263;48.680;9.004;2024-03-25T10:14:18;9.70;99.90
10433;DHT22;5263;48.680;9.004;2024-03-25T10:16:44;10.30;99.90
10433;DHT22;5263;48.680;9.004;2024-03-25T10:19:10;10.50;99.90
10433;DHT22;5263;48.680;9.004;2024-03-25T10:21:36;11.00;99.90
10433;DHT22;5263;48.680;9.004;2024-03-25T10:24:04;11.50;99.90
10433;DHT22;5263;48.680;9.004;2024-03-25T10:26:31;11.60;99.90
10433;DHT22;5263;48.680;9.004;2024-03-25T10:29:02;11.20;99.90
10433;DHT22;5263;48.680;9.004;2024-03-25T10:31:28;11.40;99.90
10433;DHT22;5263;48.680;9.004;2024-03-25T10:33:54;11.50;99.90
10433;DHT22;5263;48.680;9.004;2024-03-25T10:36:22;12.20;99.90
10433;DHT22;5263;48.680;9.004;2024-03-25T10:38:53;12.10;99.90
10433;DHT22;5263;48.680;9.004;2024-03-25T10:41:20;12.00;99.90
10433;DHT22;5263;48.680;9.004;2024-03-25T10:43:47;12.70;99.90
10433;DHT22;5263;48.680;9.004;2024-03-25T10:46:20;12.30;99.90
10433;DHT22;5263;48.680;9.004;2024-03-25T10:49:03;13.40;99.90
10433;DHT22;5263;48.680;9.004;2024-03-25T10:51:33;13.90;99.90
10433;DHT22;5263;48.680;9.004;2024-03-25T10:54:01;13.20;99.60
10433;DHT22;5263;48.680;9.004;2024-03-25T10:56:27;12.90;98.10
10433;DHT22;5263;48.680;9.004;2024-03-25T10:58:53;13.00;98.10
10433;DHT22;5263;48.680;9.004;2024-03-25T11:01:19;13.70;97.60
10433;DHT22;5263;48.680;9.004;2024-03-25T11:03:46;13.90;97.60
10433;DHT22;5263;48.680;9.004;2024-03-25T11:06:14;13.00;97.20
10433;DHT22;5263;48.680;9.004;2024-03-25T11:08:40;12.40;98.30
10433;DHT22;5263;48.680;9.004;2024-03-25T11:11:07;12.60;98.30
10433;DHT22;5263;48.680;9.004;2024-03-25T11:13:33;12.60;98.80
10433;DHT22;5263;48.680;9.004;2024-03-25T11:15:58;12.20;99.90
10433;DHT22;5263;48.680;9.004;2024-03-25T11:18:25;12.30;99.90
10433;DHT22;5263;48.680;9.004;2024-03-25T11:21:01;12.40;99.60
10433;DHT22;5263;48.680;9.004;2024-03-25T11:23:35;12.10;99.30
10433;DHT22;5263;48.680;9.004;2024-03-25T11:26:01;11.90;99.90
10433;DHT22;5263;48.680;9.004;2024-03-25T11:28:28;11.90;98.00
10433;DHT22;5263;48.680;9.004;2024-03-25T11:30:55;12.00;99.90
10433;DHT22;5263;48.680;9.004;2024-03-25T11:33:21;12.40;99.90
10433;DHT22;5263;48.680;9.004;2024-03-25T11:35:50;12.60;98.00
10433;DHT22;5263;48.680;9.004;2024-03-25T11:38:16;12.70;96.50
10433;DHT22;5263;48.680;9.004;2024-03-25T11:40:43;11.70;97.90
10433;DHT22;5263;48.680;9.004;2024-03-25T11:43:17;12.00;99.60
10433;DHT22;5263;48.680;9.004;2024-03-25T11:45:42;11.80;99.90
10433;DHT22;5263;48.680;9.004;2024-03-25T11:48:08;12.00;98.80
10433;DHT22;5263;48.680;9.004;2024-03-25T11:50:34;11.80;99.90
10433;DHT22;5263;48.680;9.004;2024-03-25T11:53:04;13.10;98.20
10433;DHT22;5263;48.680;9.004;2024-03-25T11:55:30;14.30;97.60
10433;DHT22;5263;48.680;9.004;2024-03-25T11:57:56;14.20;94.70
10433;DHT22;5263;48.680;9.004;2024-03-25T12:00:22;15.20;94.90
10433;DHT22;5263;48.680;9.004;2024-03-25T12:02:47;17.70;90.80
10433;DHT22;5263;48.680;9.004;2024-03-25T12:05:14;19.70;85.00
10433;DHT22;5263;48.680;9.004;2024-03-25T12:07:39;18.80;80.60
10433;DHT22;5263;48.680;9.004;2024-03-25T12:10:05;20.60;87.00
10433;DHT22;5263;48.680;9.004;2024-03-25T12:12:50;18.20;79.10
10433;DHT22;5263;48.680;9.004;2024-03-25T12:15:18;15.10;82.10
10433;DHT22;5263;48.680;9.004;2024-03-25T12:17:44;15.90;85.60
10433;DHT22;5263;48.680;9.004;2024-03-25T12:20:10;17.50;87.40
10433;DHT22;5263;48.680;9.004;2024-03-25T12:22:36;20.90;81.10
10433;DHT22;5263;48.680;9.004;2024-03-25T12:25:03;21.70;79.50
10433;DHT22;5263;48.680;9.004;2024-03-25T12:27:31;20.40;74.00
10433;DHT22;5263;48.680;9.004;2024-03-25T12:30:15;19.60;77.00
10433;DHT22;5263;48.680;9.004;2024-03-25T12:32:43;18.80;76.00
10433;DHT22;5263;48.680;9.004;2024-03-25T12:35:12;16.40;78.20
10433;DHT22;5263;48.680;9.004;2024-03-25T12:37:39;18.40;76.90
10433;DHT22;5263;48.680;9.004;2024-03-25T12:40:06;20.70;69.80
10433;DHT22;5263;48.680;9.004;2024-03-25T12:42:33;20.80;72.80
10433;DHT22;5263;48.680;9.004;2024-03-25T12:44:59;23.30;67.60
10433;DHT22;5263;48.680;9.004;2024-03-25T12:47:25;23.60;62.10
10433;DHT22;5263;48.680;9.004;2024-03-25T12:49:50;23.50;60.90
10433;DHT22;5263;48.680;9.004;2024-03-25T12:52:16;23.80;61.40
10433;DHT22;5263;48.680;9.004;2024-03-25T12:54:42;20.60;59.90
10433;DHT22;5263;48.680;9.004;2024-03-25T12:57:08;22.10;62.80
10433;DHT22;5263;48.680;9.004;2024-03-25T12:59:33;22.10;59.40
10433;DHT22;5263;48.680;9.004;2024-03-25T13:01:59;19.50;63.10
10433;DHT22;5263;48.680;9.004;2024-03-25T13:04:25;19.00;63.10
10433;DHT22;5263;48.680;9.004;2024-03-25T13:06:50;19.60;63.30
10433;DHT22;5263;48.680;9.004;2024-03-25T13:09:16;19.90;60.80
10433;DHT22;5263;48.680;9.004;2024-03-25T13:11:42;18.80;61.80
10433;DHT22;5263;48.680;9.004;2024-03-25T13:14:10;19.50;60.00
10433;DHT22;5263;48.680;9.004;2024-03-25T13:16:36;20.40;65.80
10433;DHT22;5263;48.680;9.004;2024-03-25T13:19:01;22.60;60.60
10433;DHT22;5263;48.680;9.004;2024-03-25T13:21:27;20.80;61.30
10433;DHT22;5263;48.680;9.004;2024-03-25T13:23:53;20.60;60.60
10433;DHT22;5263;48.680;9.004;2024-03-25T13:26:18;22.00;59.00
10433;DHT22;5263;48.680;9.004;2024-03-25T13:28:44;21.50;57.70
10433;DHT22;5263;48.680;9.004;2024-03-25T13:31:10;22.90;57.90
10433;DHT22;5263;48.680;9.004;2024-03-25T13:33:36;22.70;54.10
10433;DHT22;5263;48.680;9.004;2024-03-25T13:36:03;22.00;57.10
10433;DHT22;5263;48.680;9.004;2024-03-25T13:38:28;24.20;50.20
10433;DHT22;5263;48.680;9.004;2024-03-25T13:40:54;24.50;50.40
10433;DHT22;5263;48.680;9.004;2024-03-25T13:43:20;25.40;51.40
10433;DHT22;5263;48.680;9.004;2024-03-25T13:45:49;24.40;49.40
10433;DHT22;5263;48.680;9.004;2024-03-25T13:48:18;23.20;49.20
10433;DHT22;5263;48.680;9.004;2024-03-25T13:50:43;22.70;51.60
10433;DHT22;5263;48.680;9.004;2024-03-25T13:53:09;22.30;50.40
10433;DHT22;5263;48.680;9.004;2024-03-25T13:55:35;19.60;51.50
10433;DHT22;5263;48.680;9.004;2024-03-25T13:58:00;20.90;53.20
10433;DHT22;5263;48.680;9.004;2024-03-25T14:00:26;18.50;57.40
10433;DHT22;5263;48.680;9.004;2024-03-25T14:02:56;20.00;56.90
10433;DHT22;5263;48.680;9.004;2024-03-25T14:05:22;20.30;54.70
10433;DHT22;5263;48.680;9.004;2024-03-25T14:07:51;21.30;54.20
10433;DHT22;5263;48.680;9.004;2024-03-25T14:10:17;19.90;54.50
10433;DHT22;5263;48.680;9.004;2024-03-25T14:12:42;19.30;54.30
10433;DHT22;5263;48.680;9.004;2024-03-25T14:15:08;17.90;56.00
10433;DHT22;5263;48.680;9.004;2024-03-25T14:17:35;18.30;58.20
10433;DHT22;5263;48.680;9.004;2024-03-25T14:20:00;17.90;59.20
10433;DHT22;5263;48.680;9.004;2024-03-25T14:22:26;18.20;60.20
10433;DHT22;5263;48.680;9.004;2024-03-25T14:24:52;17.80;60.40
10433;DHT22;5263;48.680;9.004;2024-03-25T14:27:23;18.00;61.90
10433;DHT22;5263;48.680;9.004;2024-03-25T14:29:48;18.30;59.30
10433;DHT22;5263;48.680;9.004;2024-03-25T14:32:14;19.10;58.70
10433;DHT22;5263;48.680;9.004;2024-03-25T14:34:39;17.90;57.70
10433;DHT22;5263;48.680;9.004;2024-03-25T14:37:05;18.60;57.50
10433;DHT22;5263;48.680;9.004;2024-03-25T14:39:31;18.50;57.70
10433;DHT22;5263;48.680;9.004;2024-03-25T14:41:57;17.20;59.20
10433;DHT22;5263;48.680;9.004;2024-03-25T14:44:22;18.10;58.50
10433;DHT22;5263;48.680;9.004;2024-03-25T14:46:48;18.50;58.70
10433;DHT22;5263;48.680;9.004;2024-03-25T14:49:15;19.50;56.80
10433;DHT22;5263;48.680;9.004;2024-03-25T14:51:40;18.30;59.30
10433;DHT22;5263;48.680;9.004;2024-03-25T14:54:06;17.70;57.00
10433;DHT22;5263;48.680;9.004;2024-03-25T14:56:32;17.80;60.90
10433;DHT22;5263;48.680;9.004;2024-03-25T14:58:57;20.00;59.70
10433;DHT22;5263;48.680;9.004;2024-03-25T15:01:24;20.80;57.70
10433;DHT22;5263;48.680;9.004;2024-03-25T15:03:50;20.00;55.50
10433;DHT22;5263;48.680;9.004;2024-03-25T15:06:15;19.40;56.60
10433;DHT22;5263;48.680;9.004;2024-03-25T15:08:41;18.50;57.30
10433;DHT22;5263;48.680;9.004;2024-03-25T15:11:07;18.10;57.40
10433;DHT22;5263;48.680;9.004;2024-03-25T15:13:33;18.00;59.40
10433;DHT22;5263;48.680;9.004;2024-03-25T15:16:03;18.10;59.70
10433;DHT22;5263;48.680;9.004;2024-03-25T15:18:29;17.50;60.30
10433;DHT22;5263;48.680;9.004;2024-03-25T15:21:04;18.00;59.80
10433;DHT22;5263;48.680;9.004;2024-03-25T15:23:31;18.80;60.90
10433;DHT22;5263;48.680;9.004;2024-03-25T15:25:57;18.30;58.70
10433;DHT22;5263;48.680;9.004;2024-03-25T15:28:23;17.70;58.80
10433;DHT22;5263;48.680;9.004;2024-03-25T15:30:49;17.90;57.90
10433;DHT22;5263;48.680;9.004;2024-03-25T15:33:16;17.50;58.00
10433;DHT22;5263;48.680;9.004;2024-03-25T15:35:43;16.80;58.40
10433;DHT22;5263;48.680;9.004;2024-03-25T15:38:08;17.20;59.30
10433;DHT22;5263;48.680;9.004;2024-03-25T15:40:35;17.90;59.00
10433;DHT22;5263;48.680;9.004;2024-03-25T15:43:00;18.30;57.70
10433;DHT22;5263;48.680;9.004;2024-03-25T15:45:30;17.00;58.70
10433;DHT22;5263;48.680;9.004;2024-03-25T15:47:56;16.70;59.50
10433;DHT22;5263;48.680;9.004;2024-03-25T15:50:21;16.80;60.10
10433;DHT22;5263;48.680;9.004;2024-03-25T15:52:50;16.70;58.70